SANTA FE DAM CA US current weather conditions

sailwx.info

Wind from 243 at 1 knots gusting 5

Air temperature 15.6° C
Dewpoint 8.3° C

Last reported at 2018-May-27 03:57 UTC.
Time now 2018-May-27 04:44 UTC

Location: N 34°08' W 117°57'.
View on Google Maps.

See reports from other nearby stations

  
Tides and Currents Weather Stations Pressure Air Temp Water Temp Dewpoint Dewpoint Depression Visibility Wind Speed Wind Dir Waves Ship Positions
date/time (UTC)wind fromknots sea level pressurealtimeterstation pressurevisibilityair tempwater tempwave heightnotes
2018-May-27 03:57 243 1 gusting 5 15.6
2018-May-27 02:57 270 3 gusting 8 17.8
2018-May-27 01:57 245 6 gusting 12 20.0
2018-May-27 00:57 237 5 gusting 9 19.4
2018-May-26 23:57 259 4 gusting 11 20.0
2018-May-26 22:57 275 4 gusting 9 20.6
2018-May-26 21:57 220 5 gusting 9 19.4
2018-May-26 20:57 223 2 gusting 8 20.0
2018-May-26 19:57 024 1 gusting 6 20.0
2018-May-26 18:57 022 1 gusting 8 18.3
2018-May-26 17:57 067 2 gusting 6 17.8
2018-May-26 16:57 173 2 gusting 5 15.6
2018-May-26 15:57 118 1 gusting 5 16.1
2018-May-26 14:57 081 0 gusting 5 15.6
2018-May-26 13:57 019 3 gusting 5 13.9
2018-May-26 12:57 041 0 gusting 3 13.3
2018-May-26 11:57 13.3
2018-May-26 10:57 022 2 gusting 3 13.3
2018-May-26 09:57 057 0 gusting 5 12.2
2018-May-26 08:57 044 1 gusting 4 12.8
2018-May-26 07:57 069 0 gusting 5 13.3
2018-May-26 06:57 032 0 gusting 4 13.3
2018-May-26 05:57 11.7
2018-May-26 04:57 206 1 gusting 6 13.9
2018-May-26 03:57 231 2 gusting 6 14.4
2018-May-26 02:57 234 5 gusting 13 16.7
2018-May-26 01:57 236 7 gusting 13 18.3
2018-May-26 00:57 240 7 gusting 15 20.6
2018-May-25 23:57 255 8 gusting 15 21.7
2018-May-25 22:57 223 7 gusting 16 22.2
2018-May-25 21:57 246 7 gusting 14 22.8
2018-May-25 20:57 212 6 gusting 11 22.8
2018-May-25 19:57 258 5 gusting 9 21.1
2018-May-25 18:57 244 5 gusting 11 18.9
2018-May-25 17:57 250 4 gusting 10 18.9
2018-May-25 16:57 223 3 gusting 7 20.0
2018-May-25 15:57 254 3 gusting 6 17.2
2018-May-25 14:57 242 4 gusting 6 15.6
2018-May-25 13:57 219 0 gusting 3 13.9
2018-May-25 12:57 296 2 gusting 6 13.9
2018-May-25 11:57 258 3 gusting 7 14.4
2018-May-25 10:57 292 2 gusting 5 14.4
2018-May-25 09:57 260 3 gusting 6 15.0
2018-May-25 08:57 245 3 gusting 7 15.0
2018-May-25 07:57 247 2 gusting 6 15.6
2018-May-25 06:57 240 4 gusting 8 15.6
2018-May-25 05:57 228 4 gusting 6 15.6
2018-May-25 04:57 269 3 gusting 8 16.1